MMTC/TRC METAR and TAF weather

Enter ICAO airport designator
Station Type Date Time Source
MMTC METAR 2019/02/17 14:42 UTC NOAA

MMTC 171442Z 00000KT 10SM SKC 22/03 A2992 RMK SLP031 57010 957 ISOL AS


Station Type Date Time Source
MMTC Decoded METAR 2019/02/17 14:42 UTC NOAA

Torreon, Coah., Mexico (MMTC) 25-32N 103-27W 1150M
Feb 17, 2019 - 09:42 AM EST / 2019.02.17 1442 UTC
Wind: Calm:0
Visibility: 10 mile(s):0
Sky conditions: clear
Temperature: 71 F (22 C)
Dew Point: 37 F (3 C)
Relative Humidity: 28%
Pressure (altimeter): 29.92 in. Hg (1013 hPa)
Pressure tendency: 0.03 inches (1.0 hPa) lower than three hours ago
ob: MMTC 171442Z 00000KT 10SM SKC 22/03 A2992 RMK SLP031 57010 957 ISOL AS
cycle: 14

Station Type Date Time Source
MMTC TAF 2019/02/17 06:32 UTC NOAA

TAF MMTC 170526Z 1706/1806 32011KT P6SM SKC
FM171800 25008KT P6SM SCT220
BECMG 1803/1805 34004KT SKC


Example: see airport list